createdAt,value
2018-02-09T00:01:11.193Z,98344.05
2018-02-09T00:03:39.448Z,98347.34
2018-02-09T00:06:08.479Z,98346.42
2018-02-09T00:08:36.734Z,98356.67
2018-02-09T00:11:04.992Z,98350.38
2018-02-09T00:13:34.017Z,98354.08
2018-02-09T00:16:02.286Z,98350.16
2018-02-09T00:18:30.536Z,98352.04
2018-02-09T00:20:58.800Z,98349.31
2018-02-09T00:23:27.934Z,98360.15
2018-02-09T00:25:56.198Z,98364.66
2018-02-09T00:28:24.450Z,98363.37
2018-02-09T00:30:53.487Z,98363.27
2018-02-09T00:33:21.752Z,98358.67
2018-02-09T00:35:50.017Z,98359.47
2018-02-09T00:38:18.278Z,98356.72
2018-02-09T00:40:47.304Z,98356.20
2018-02-09T00:43:15.553Z,98357.71
2018-02-09T00:45:43.821Z,98356.83
2018-02-09T00:48:12.846Z,98357.95
2018-02-09T00:50:41.110Z,98357.56
2018-02-09T00:53:09.368Z,98353.86
2018-02-09T00:55:38.428Z,98356.28
2018-02-09T00:58:06.655Z,98355.30
2018-02-09T01:00:34.922Z,98351.33
2018-02-09T01:03:03.187Z,98357.27
2018-02-09T01:05:32.208Z,98349.59
2018-02-09T01:08:00.476Z,98347.13
2018-02-09T01:10:28.757Z,98347.38
2018-02-09T01:12:57.010Z,98344.58
2018-02-09T01:15:26.040Z,98339.14
2018-02-09T01:17:54.289Z,98336.97
2018-02-09T01:20:22.545Z,98335.66
2018-02-09T01:22:51.570Z,98336.94
2018-02-09T01:25:19.826Z,98332.33
2018-02-09T01:27:48.085Z,98332.54
2018-02-09T01:30:17.111Z,98335.63
2018-02-09T01:32:45.381Z,98329.25
2018-02-09T01:35:13.632Z,98337.41
2018-02-09T01:37:42.666Z,98331.16
2018-02-09T01:40:10.913Z,98330.23
2018-02-09T01:42:39.186Z,98330.80
2018-02-09T01:45:08.214Z,98330.72
2018-02-09T01:47:36.483Z,98324.91
2018-02-09T01:50:16.758Z,98330.50
2018-02-09T01:52:45.019Z,98324.39
2018-02-09T01:55:13.279Z,98320.81
2018-02-09T01:57:41.532Z,98320.92
2018-02-09T02:00:10.562Z,98319.16
2018-02-09T02:02:38.822Z,98318.30
2018-02-09T02:05:07.078Z,98311.16
2018-02-09T02:07:36.135Z,98309.51
2018-02-09T02:10:04.388Z,98307.27
2018-02-09T02:12:32.667Z,98312.90
2018-02-09T02:15:00.925Z,98314.70
2018-02-09T02:17:29.184Z,98306.63
2018-02-09T02:19:57.438Z,98295.80
2018-02-09T02:22:25.704Z,98299.57
2018-02-09T02:24:53.956Z,98301.42
2018-02-09T02:27:22.230Z,98303.86
2018-02-09T02:29:50.490Z,98301.83
2018-02-09T02:32:18.748Z,98299.75
2018-02-09T02:34:47.010Z,98306.20
2018-02-09T02:37:15.278Z,98306.96
2018-02-09T02:39:44.315Z,98302.50
2018-02-09T02:42:12.682Z,98289.78
2018-02-09T02:44:40.932Z,98291.66
2018-02-09T02:47:09.193Z,98291.33
2018-02-09T02:49:38.209Z,98287.66
2018-02-09T02:52:06.513Z,98295.81
2018-02-09T02:54:34.770Z,98287.52
2018-02-09T02:57:03.018Z,98291.14
2018-02-09T02:59:32.046Z,98293.05
2018-02-09T03:02:00.297Z,98286.74
2018-02-09T03:04:28.560Z,98286.43
2018-02-09T03:06:57.578Z,98281.31
2018-02-09T03:09:25.843Z,98284.32
2018-02-09T03:11:54.862Z,98284.46
2018-02-09T03:14:23.117Z,98281.61
2018-02-09T03:16:51.367Z,98276.98
2018-02-09T03:19:20.397Z,98277.98
2018-02-09T03:21:48.642Z,98274.86
2018-02-09T03:24:17.667Z,98277.88
2018-02-09T03:26:45.916Z,98270.64
2018-02-09T03:29:14.958Z,98270.44
2018-02-09T03:31:43.211Z,98263.52
2018-02-09T03:34:11.480Z,98266.88
2018-02-09T03:36:39.745Z,98270.15
2018-02-09T03:39:08.768Z,98263.16
2018-02-09T03:41:37.026Z,98257.31
2018-02-09T03:44:05.279Z,98251.84
2018-02-09T03:46:34.315Z,98254.92
2018-02-09T03:49:02.566Z,98252.97
2018-02-09T03:51:30.822Z,98254.00
2018-02-09T03:53:59.847Z,98246.43
2018-02-09T03:56:28.116Z,98243.73
2018-02-09T03:58:56.369Z,98243.91
2018-02-09T04:01:25.399Z,98246.05
2018-02-09T04:03:53.656Z,98251.25
2018-02-09T04:06:21.929Z,98245.30
2018-02-09T04:08:50.419Z,98252.98
2018-02-09T04:11:18.700Z,98253.88
2018-02-09T04:13:46.941Z,98246.58
2018-02-09T04:16:15.980Z,98248.27
2018-02-09T04:18:44.243Z,98251.17
2018-02-09T04:21:12.505Z,98251.53
2018-02-09T04:23:40.757Z,98247.36
2018-02-09T04:26:09.793Z,98251.20
2018-02-09T04:28:38.058Z,98251.19
2018-02-09T04:31:06.322Z,98256.45
2018-02-09T04:33:34.580Z,98254.27
2018-02-09T04:36:03.596Z,98253.53
2018-02-09T04:38:31.856Z,98254.16
2018-02-09T04:41:00.883Z,98249.70
2018-02-09T04:43:29.133Z,98249.06
2018-02-09T04:45:57.395Z,98246.94
2018-02-09T04:48:26.426Z,98247.94
2018-02-09T04:50:54.685Z,98242.25
2018-02-09T04:53:22.949Z,98243.64
2018-02-09T04:55:51.980Z,98245.11
2018-02-09T04:58:20.243Z,98237.86
2018-02-09T05:00:48.490Z,98236.16
2018-02-09T05:03:17.525Z,98236.20
2018-02-09T05:05:45.787Z,98235.39
2018-02-09T05:08:14.045Z,98233.89
2018-02-09T05:10:42.297Z,98243.48
2018-02-09T05:13:11.326Z,98238.63
2018-02-09T05:15:39.580Z,98231.56
2018-02-09T05:18:08.610Z,98238.85
2018-02-09T05:20:36.874Z,98242.09
2018-02-09T05:23:05.130Z,98241.88
2018-02-09T05:25:33.470Z,98241.80
2018-02-09T05:28:01.683Z,98243.30
2018-02-09T05:30:29.937Z,98234.05
2018-02-09T05:32:58.958Z,98236.00
2018-02-09T05:35:27.222Z,98235.41
2018-02-09T05:37:56.249Z,98231.80
2018-02-09T05:40:24.509Z,98231.69
2018-02-09T05:42:52.760Z,98231.04
2018-02-09T05:45:21.795Z,98231.37
2018-02-09T05:47:50.045Z,98235.79
2018-02-09T05:50:18.314Z,98231.50
2018-02-09T05:52:46.577Z,98232.45
2018-02-09T05:55:15.602Z,98228.98
2018-02-09T05:57:43.863Z,98231.97
2018-02-09T06:00:12.126Z,98226.52
2018-02-09T06:02:41.151Z,98232.49
2018-02-09T06:05:09.409Z,98229.49
2018-02-09T06:07:37.665Z,98224.07
2018-02-09T06:10:06.681Z,98222.84
2018-02-09T06:12:34.946Z,98219.20
2018-02-09T06:15:03.201Z,98222.03
2018-02-09T06:17:32.230Z,98215.13
2018-02-09T06:20:00.490Z,98215.60
2018-02-09T06:22:28.749Z,98224.87
2018-02-09T06:24:57.771Z,98217.77
2018-02-09T06:27:26.033Z,98216.26
2018-02-09T06:29:54.288Z,98222.83
2018-02-09T06:32:22.562Z,98223.63
2018-02-09T06:34:52.324Z,98223.80
2018-02-09T06:37:20.585Z,98216.70
2018-02-09T06:39:48.846Z,98210.94
2018-02-09T06:42:17.886Z,98216.20
2018-02-09T06:44:46.146Z,98219.10
2018-02-09T06:47:14.415Z,98220.98
2018-02-09T06:49:42.673Z,98213.37
2018-02-09T06:52:10.947Z,98214.38
2018-02-09T06:54:39.203Z,98209.09
2018-02-09T06:57:08.280Z,98210.65
2018-02-09T06:59:36.535Z,98203.97
2018-02-09T07:02:04.792Z,98200.72
2018-02-09T07:04:33.057Z,98209.58
2018-02-09T07:07:01.319Z,98208.93
2018-02-09T07:09:29.586Z,98199.97
2018-02-09T07:11:58.606Z,98203.98
2018-02-09T07:14:26.874Z,98205.03
2018-02-09T07:16:55.127Z,98196.91
2018-02-09T07:19:24.156Z,98198.80
2018-02-09T07:21:52.413Z,98192.16
2018-02-09T07:24:20.685Z,98189.97
2018-02-09T07:26:48.938Z,98190.25
2018-02-09T07:29:17.986Z,98187.38
2018-02-09T07:31:46.249Z,98185.72
2018-02-09T07:34:14.513Z,98187.47
2018-02-09T07:36:42.764Z,98185.84
2018-02-09T07:39:11.811Z,98188.74
2018-02-09T07:41:40.057Z,98185.05
2018-02-09T07:44:08.376Z,98186.31
2018-02-09T07:46:36.627Z,98186.50
2018-02-09T07:49:04.897Z,98187.61
2018-02-09T07:51:33.155Z,98183.38
2018-02-09T07:54:01.423Z,98183.80
2018-02-09T07:56:29.698Z,98185.74
2018-02-09T07:58:57.966Z,98184.39
2018-02-09T08:01:26.998Z,98184.38
2018-02-09T08:03:55.258Z,98179.33
2018-02-09T08:06:23.534Z,98168.75
2018-02-09T08:08:52.493Z,98178.81
2018-02-09T08:11:21.536Z,98175.38
2018-02-09T08:13:49.794Z,98179.03
2018-02-09T08:16:18.059Z,98176.55
2018-02-09T08:18:46.325Z,98169.52
2018-02-09T08:21:15.360Z,98175.45
2018-02-09T08:23:43.603Z,98170.27
2018-02-09T08:26:11.913Z,98171.64
2018-02-09T08:28:40.182Z,98174.51
2018-02-09T08:31:08.441Z,98166.70
2018-02-09T08:33:36.707Z,98165.50
2018-02-09T08:36:04.970Z,98159.56
2018-02-09T08:38:34.106Z,98166.40
2018-02-09T08:41:02.355Z,98163.44
2018-02-09T08:43:30.619Z,98166.28
2018-02-09T08:45:59.637Z,98166.64
2018-02-09T08:48:27.924Z,98157.73
2018-02-09T08:50:56.192Z,98159.74
2018-02-09T08:53:24.509Z,98158.26
2018-02-09T08:55:52.742Z,98152.31
2018-02-09T08:58:21.014Z,98150.63
2018-02-09T09:00:49.274Z,98151.73
2018-02-09T09:03:17.556Z,98152.23
2018-02-09T09:05:45.824Z,98151.28
2018-02-09T09:08:14.862Z,98147.67
2018-02-09T09:10:43.121Z,98149.59
2018-02-09T09:13:11.394Z,98152.41
2018-02-09T09:15:39.671Z,98148.77
2018-02-09T09:18:07.950Z,98150.22
2018-02-09T09:20:36.229Z,98149.78
2018-02-09T09:23:04.484Z,98151.52
2018-02-09T09:25:32.753Z,98156.70
2018-02-09T09:28:01.013Z,98148.31
2018-02-09T09:30:30.050Z,98152.22
2018-02-09T09:32:58.314Z,98144.32
2018-02-09T09:35:26.582Z,98149.96
2018-02-09T09:37:54.847Z,98149.98
2018-02-09T09:40:23.115Z,98141.67
2018-02-09T09:42:52.148Z,98142.67
2018-02-09T09:45:20.465Z,98141.63
2018-02-09T09:47:48.737Z,98134.54
2018-02-09T09:50:17.017Z,98135.05
2018-02-09T09:52:45.282Z,98134.85
2018-02-09T09:55:13.550Z,98132.41
2018-02-09T09:57:41.815Z,98125.63
2018-02-09T10:00:10.090Z,98125.86
2018-02-09T10:02:40.958Z,98123.95
2018-02-09T10:05:09.235Z,98118.63
2018-02-09T10:07:37.497Z,98123.70
2018-02-09T10:10:05.759Z,98121.77
2018-02-09T10:12:34.030Z,98111.41
2018-02-09T10:15:02.289Z,98115.09
2018-02-09T10:17:30.579Z,98115.31
2018-02-09T10:19:58.845Z,98110.27
2018-02-09T10:22:27.122Z,98104.84
2018-02-09T10:24:55.395Z,98098.19
2018-02-09T10:27:23.664Z,98100.88
2018-02-09T10:29:51.924Z,98097.84
2018-02-09T10:32:20.197Z,98102.02
2018-02-09T10:34:48.466Z,98096.06
2018-02-09T10:37:16.738Z,98091.61
2018-02-09T10:39:45.007Z,98094.70
2018-02-09T10:42:14.043Z,98090.94
2018-02-09T10:44:42.339Z,98093.34
2018-02-09T10:47:10.610Z,98088.40
2018-02-09T10:49:38.887Z,98090.11
2018-02-09T10:52:07.163Z,98086.16
2018-02-09T10:54:35.418Z,98080.45
2018-02-09T10:57:03.693Z,98082.41
2018-02-09T10:59:31.974Z,98083.91
2018-02-09T11:02:00.237Z,98084.64
2018-02-09T11:04:28.508Z,98083.84
2018-02-09T11:06:56.774Z,98073.14
2018-02-09T11:09:30.472Z,98077.22
2018-02-09T11:12:01.768Z,98076.29
2018-02-09T11:14:30.041Z,98069.72
2018-02-09T11:16:58.321Z,98067.86
2018-02-09T11:19:26.578Z,98070.30
2018-02-09T11:21:54.897Z,98065.73
2018-02-09T11:24:23.113Z,98060.70
2018-02-09T11:26:51.383Z,98056.77
2018-02-09T11:29:19.661Z,98051.56
2018-02-09T11:31:47.932Z,98047.53
2018-02-09T11:34:16.197Z,98051.03
2018-02-09T11:36:44.471Z,98045.67
2018-02-09T11:39:13.506Z,98035.52
2018-02-09T11:41:41.770Z,98035.59
2018-02-09T11:44:10.034Z,98029.38
2018-02-09T11:46:38.301Z,98022.27
2018-02-09T11:49:06.576Z,98031.30
2018-02-09T11:51:34.848Z,98030.45
2018-02-09T11:54:03.125Z,98020.77
2018-02-09T11:56:32.160Z,98030.98
2018-02-09T11:59:00.425Z,98024.72
2018-02-09T12:01:28.700Z,98019.36
2018-02-09T12:03:56.956Z,98017.72
2018-02-09T12:06:25.233Z,98016.89
2018-02-09T12:08:53.500Z,98010.26
2018-02-09T12:11:21.775Z,98010.59
2018-02-09T12:13:50.049Z,98010.59
2018-02-09T12:16:19.091Z,98005.87
2018-02-09T12:18:47.354Z,98003.02
2018-02-09T12:21:15.629Z,98000.73
2018-02-09T12:23:43.899Z,97999.13
2018-02-09T12:26:12.174Z,97990.92
2018-02-09T12:28:40.450Z,97984.62
2018-02-09T12:31:08.734Z,97976.81
2018-02-09T12:33:36.995Z,97972.08
2018-02-09T12:36:05.278Z,97974.56
2018-02-09T12:38:33.537Z,97970.08
2018-02-09T12:41:01.846Z,97963.02
2018-02-09T12:43:30.123Z,97965.90
2018-02-09T12:45:58.383Z,97960.22
2018-02-09T12:48:26.655Z,97959.36
2018-02-09T12:50:54.921Z,97949.22
2018-02-09T12:53:23.202Z,97951.71
2018-02-09T12:55:51.462Z,97945.48
2018-02-09T12:58:19.730Z,97950.52
2018-02-09T13:00:48.042Z,97944.33
2018-02-09T13:03:16.311Z,97948.06
2018-02-09T13:05:44.567Z,97947.25
2018-02-09T13:08:12.823Z,97944.77
2018-02-09T13:10:41.874Z,97943.86
2018-02-09T13:13:11.840Z,97937.88
2018-02-09T13:15:40.861Z,97937.69
2018-02-09T13:18:09.133Z,97937.97
2018-02-09T13:20:37.391Z,97945.66
2018-02-09T13:23:23.407Z,97936.64
2018-02-09T13:25:51.662Z,97939.46
2018-02-09T13:31:27.549Z,97939.12
2018-02-09T13:33:55.822Z,97935.70
2018-02-09T13:36:41.651Z,97934.76
2018-02-09T13:39:09.923Z,97936.00
2018-02-09T13:41:38.268Z,97938.50
2018-02-09T13:44:06.456Z,97934.95
2018-02-09T13:46:34.720Z,97937.45
2018-02-09T13:49:02.977Z,97939.45
2018-02-09T13:51:31.242Z,97934.34
2018-02-09T13:54:00.311Z,97931.52
2018-02-09T13:56:28.592Z,97932.69
2018-02-09T13:58:56.847Z,97932.86
2018-02-09T14:01:25.111Z,97931.62
2018-02-09T14:03:53.361Z,97927.05
2018-02-09T14:06:21.637Z,97926.65
2018-02-09T14:08:50.131Z,97926.95
2018-02-09T14:11:18.397Z,97933.31
2018-02-09T14:13:46.651Z,97926.21
2018-02-09T14:16:14.918Z,97931.20
2018-02-09T14:18:43.933Z,97929.95
2018-02-09T14:21:12.203Z,97930.83
2018-02-09T14:23:40.449Z,97934.13
2018-02-09T14:26:09.476Z,97926.28
2018-02-09T14:28:37.741Z,97929.02
2018-02-09T14:31:05.995Z,97930.37
2018-02-09T14:33:35.018Z,97933.02
2018-02-09T14:36:03.284Z,97923.25
2018-02-09T14:38:32.297Z,97923.88
2018-02-09T14:41:00.558Z,97926.39
2018-02-09T14:43:28.810Z,97922.28
2018-02-09T14:45:57.838Z,97926.95
2018-02-09T14:48:26.102Z,97926.04
2018-02-09T14:50:54.403Z,97924.77
2018-02-09T14:53:22.649Z,97918.98
2018-02-09T14:55:50.917Z,97917.95
2018-02-09T14:58:19.945Z,97916.27
2018-02-09T15:00:48.208Z,97920.45
2018-02-09T15:03:16.493Z,97920.93
2018-02-09T15:05:44.740Z,97925.86
2018-02-09T15:08:13.776Z,97926.70
2018-02-09T15:10:42.042Z,97920.02
2018-02-09T15:13:10.309Z,97924.49
2018-02-09T15:15:38.573Z,97923.73
2018-02-09T15:18:07.596Z,97920.80
2018-02-09T15:20:35.854Z,97915.98
2018-02-09T15:23:04.121Z,97920.61
2018-02-09T15:25:32.379Z,97921.79
2018-02-09T15:28:01.414Z,97916.30
2018-02-09T15:30:29.675Z,97914.97
2018-02-09T15:32:57.965Z,97910.49
2018-02-09T15:35:26.237Z,97911.06
2018-02-09T15:37:54.493Z,97915.07
2018-02-09T15:40:22.767Z,97915.95
2018-02-09T15:42:51.017Z,97911.72
2018-02-09T15:45:20.043Z,97915.81
2018-02-09T15:47:48.306Z,97912.75
2018-02-09T15:50:16.599Z,97912.07
2018-02-09T15:52:44.858Z,97915.86
2018-02-09T15:55:13.135Z,97908.84
2018-02-09T15:57:41.451Z,97911.65
2018-02-09T16:00:09.678Z,97913.61
2018-02-09T16:02:38.699Z,97910.49
2018-02-09T16:05:06.974Z,97908.31
2018-02-09T16:07:35.243Z,97911.38
2018-02-09T16:10:03.513Z,97910.41
2018-02-09T16:12:31.779Z,97910.59
2018-02-09T16:15:00.048Z,97910.49
2018-02-09T16:17:29.066Z,97910.17
2018-02-09T16:19:57.317Z,97914.31
2018-02-09T16:22:26.346Z,97914.23
2018-02-09T16:24:54.607Z,97916.31
2018-02-09T16:27:22.875Z,97918.77
2018-02-09T16:29:51.145Z,97915.89
2018-02-09T16:32:19.405Z,97915.86
2018-02-09T16:34:48.486Z,97916.19
2018-02-09T16:37:16.740Z,97922.19
2018-02-09T16:39:45.008Z,97922.44
2018-02-09T16:42:13.262Z,97925.51
2018-02-09T16:44:41.561Z,97922.70
2018-02-09T16:47:09.826Z,97924.35
2018-02-09T16:49:38.076Z,97923.55
2018-02-09T16:52:06.341Z,97920.98
2018-02-09T16:54:34.597Z,97919.42
2018-02-09T16:57:02.854Z,97920.65
2018-02-09T16:59:31.106Z,97922.31
2018-02-09T17:01:59.374Z,97925.34
2018-02-09T17:04:27.621Z,97934.46
2018-02-09T17:06:55.885Z,97935.56
2018-02-09T17:09:24.918Z,97935.09
2018-02-09T17:11:53.196Z,97941.34
2018-02-09T17:14:21.450Z,97940.97
2018-02-09T17:16:49.764Z,97942.55
2018-02-09T17:19:18.021Z,97940.35
2018-02-09T17:21:46.999Z,97943.04
2018-02-09T17:24:15.279Z,97943.78
2018-02-09T17:26:43.532Z,97948.36
2018-02-09T17:29:12.568Z,97945.98
2018-02-09T17:31:40.814Z,97947.52
2018-02-09T17:34:09.078Z,97952.63
2018-02-09T17:36:37.334Z,97949.27
2018-02-09T17:39:06.362Z,97949.20
2018-02-09T17:41:34.631Z,97947.76
2018-02-09T17:44:02.898Z,97954.06
2018-02-09T17:46:31.959Z,97959.50
2018-02-09T17:49:00.984Z,97951.61
2018-02-09T17:51:30.016Z,97955.25
2018-02-09T17:53:58.289Z,97957.80
2018-02-09T17:56:26.550Z,97960.33
2018-02-09T17:58:54.804Z,97959.55
2018-02-09T18:01:23.840Z,97959.66
2018-02-09T18:03:52.099Z,97964.68
2018-02-09T18:06:20.357Z,97957.67
2018-02-09T18:08:48.620Z,97959.67
2018-02-09T18:11:17.661Z,97960.64
2018-02-09T18:13:45.918Z,97965.11
2018-02-09T18:16:14.183Z,97963.45
2018-02-09T18:18:42.462Z,97968.39
2018-02-09T18:21:10.727Z,97969.23
2018-02-09T18:23:39.010Z,97964.67
2018-02-09T18:26:07.271Z,97962.50
2018-02-09T18:28:36.316Z,97967.63
2018-02-09T18:31:04.578Z,97966.27
2018-02-09T18:33:32.847Z,97964.78
2018-02-09T18:36:01.121Z,97965.11
2018-02-09T18:38:29.387Z,97966.23
2018-02-09T18:40:57.652Z,97966.47
2018-02-09T18:43:25.922Z,97966.67
2018-02-09T18:45:54.974Z,97969.38
2018-02-09T18:48:23.247Z,97967.61
2018-02-09T18:50:51.512Z,97967.63
2018-02-09T18:53:19.788Z,97971.50
2018-02-09T18:55:48.071Z,97970.59
2018-02-09T18:58:16.357Z,97968.41
2018-02-09T19:00:44.622Z,97970.08
2018-02-09T19:03:12.893Z,97968.92
2018-02-09T19:05:41.932Z,97962.95
2018-02-09T19:08:10.965Z,97970.62
2018-02-09T19:10:39.225Z,97973.84
2018-02-09T19:13:07.517Z,97973.50
2018-02-09T19:15:35.776Z,97975.10
2018-02-09T19:18:04.041Z,97971.42
2018-02-09T19:20:32.318Z,97972.23
2018-02-09T19:23:00.585Z,97977.53
2018-02-09T19:25:29.632Z,97970.28
2018-02-09T19:27:57.907Z,97981.27
2018-02-09T19:30:26.184Z,97986.20
2018-02-09T19:32:54.442Z,97988.52
2018-02-09T19:35:22.720Z,97992.08
2018-02-09T19:37:50.977Z,97991.86
2018-02-09T19:40:19.251Z,97992.70
2018-02-09T19:42:47.513Z,97992.20
2018-02-09T19:45:16.553Z,97992.19
2018-02-09T19:47:44.810Z,97992.09
2018-02-09T19:50:13.069Z,97990.02
2018-02-09T19:52:41.342Z,97994.19
2018-02-09T19:55:09.609Z,97994.19
2018-02-09T19:57:37.870Z,97989.16
2018-02-09T20:00:06.913Z,97991.34
2018-02-09T20:02:35.187Z,97998.23
2018-02-09T20:05:03.455Z,98001.23
2018-02-09T20:07:31.706Z,98002.75
2018-02-09T20:10:00.751Z,98001.81
2018-02-09T20:12:29.028Z,97995.13
2018-02-09T20:14:57.285Z,97997.66
2018-02-09T20:17:25.549Z,97997.91
2018-02-09T20:19:53.827Z,97996.44
2018-02-09T20:22:22.091Z,97995.41
2018-02-09T20:24:50.371Z,97998.30
2018-02-09T20:27:18.614Z,97995.69
2018-02-09T20:29:47.638Z,97992.49
2018-02-09T20:32:15.901Z,97991.70
2018-02-09T20:34:44.162Z,97990.36
2018-02-09T20:37:13.185Z,97995.17
2018-02-09T20:39:41.501Z,97986.70
2018-02-09T20:42:09.715Z,97991.27
2018-02-09T20:44:38.745Z,97986.27
2018-02-09T20:47:07.019Z,97991.95
2018-02-09T20:49:35.277Z,97986.29
2018-02-09T20:52:03.538Z,97986.39
2018-02-09T20:54:32.595Z,97982.13
2018-02-09T20:57:00.850Z,97984.42
2018-02-09T20:59:29.105Z,97986.38
2018-02-09T21:01:57.374Z,97987.01
2018-02-09T21:04:25.641Z,97984.31
2018-02-09T21:06:54.668Z,97987.73
2018-02-09T21:09:22.933Z,97984.75
2018-02-09T21:11:51.205Z,97983.70
2018-02-09T21:14:19.466Z,97981.80
2018-02-09T21:16:47.788Z,97979.20
2018-02-09T21:19:16.055Z,97980.89
2018-02-09T21:21:44.320Z,97981.16
2018-02-09T21:24:12.587Z,97981.70
2018-02-09T21:26:40.846Z,97984.64
2018-02-09T21:29:09.109Z,97980.98
2018-02-09T21:31:38.130Z,97985.33
2018-02-09T21:34:06.404Z,97982.45
2018-02-09T21:36:34.659Z,97990.25
2018-02-09T21:39:02.917Z,97988.52
2018-02-09T21:41:31.952Z,97986.59
2018-02-09T21:44:00.224Z,97986.36
2018-02-09T21:46:28.481Z,97984.32
2018-02-09T21:48:56.742Z,97982.92
2018-02-09T21:51:25.764Z,97981.87
2018-02-09T21:53:54.036Z,97986.55
2018-02-09T21:56:22.282Z,97987.69
2018-02-09T21:58:52.233Z,97988.34
2018-02-09T22:01:20.494Z,97983.20
2018-02-09T22:03:49.522Z,97991.84
2018-02-09T22:06:17.784Z,97992.61
2018-02-09T22:08:46.050Z,97994.55
2018-02-09T22:11:14.317Z,97995.72
2018-02-09T22:13:42.682Z,97993.84
2018-02-09T22:16:11.701Z,97995.23
2018-02-09T22:18:39.964Z,97992.73
2018-02-09T22:21:08.222Z,97992.98
2018-02-09T22:23:37.307Z,97993.83
2018-02-09T22:26:05.507Z,97995.73
2018-02-09T22:28:33.779Z,97995.70
2018-02-09T22:31:02.033Z,97993.94
2018-02-09T22:33:31.052Z,97992.27
2018-02-09T22:35:59.327Z,97983.58
2018-02-09T22:38:27.578Z,97988.98
2018-02-09T22:40:56.609Z,97991.23
2018-02-09T22:43:24.870Z,97991.56
2018-02-09T22:45:53.140Z,97994.26
2018-02-09T22:48:25.498Z,97991.77
2018-02-09T22:50:54.564Z,97990.23
2018-02-09T22:53:22.813Z,97989.69
2018-02-09T22:55:51.092Z,97986.89
2018-02-09T22:58:19.357Z,97989.11
2018-02-09T23:00:47.617Z,97988.74
2018-02-09T23:03:15.882Z,97988.25
2018-02-09T23:05:44.918Z,97989.63
2018-02-09T23:08:13.947Z,97991.70
2018-02-09T23:10:42.218Z,97986.71
2018-02-09T23:13:10.484Z,97988.02
2018-02-09T23:15:38.755Z,97988.65
2018-02-09T23:18:07.016Z,97988.34
2018-02-09T23:20:35.278Z,97992.16
2018-02-09T23:23:03.538Z,97995.61
2018-02-09T23:25:31.797Z,97993.97
2018-02-09T23:28:00.068Z,97992.90
2018-02-09T23:30:29.101Z,97996.53
2018-02-09T23:32:57.349Z,97988.23
2018-02-09T23:35:25.634Z,97992.69
2018-02-09T23:37:53.895Z,97991.36
2018-02-09T23:40:22.906Z,97993.63
2018-02-09T23:42:51.175Z,97985.06
2018-02-09T23:45:19.430Z,97994.19
2018-02-09T23:47:48.461Z,97990.45
2018-02-09T23:50:16.729Z,97994.48
2018-02-09T23:52:45.121Z,97989.09
2018-02-09T23:55:13.388Z,97989.36
2018-02-09T23:57:41.663Z,97990.81
